»·PEaware :: SWA1467 KLAS-KRNO

SWA1467 :: KLAS-KRNO

FLIGHT INFORMATION

Flight Status: Arrived
Operator:
Southwest Airlines
More flights by this operator :: More flights under this callsign
Pilot: Michael C. (27126)
Aircraft: BOEING 737-800
(B738)
More flights by this aircraft type
Origin: KLAS McCarran Intl
United States
Destination: KRNO Reno/Tahoe Intl
United States
More flights between these airports :: More routes between these airports
Route: SHEAD1 KENNO KENNO2
File this flight plan on PilotEdge
Remarks: RMK / SIMBRIEF
Altitude:
(Current/Filed)
34,000ft
Speed:
(Current/Filed)
447kts
Departed: 04-Mar-20 06:32 PM
Arrived: 04-Mar-20 07:34 PM
Distance/Time
Traveled:
300nm/1:02
Distance/Time
To Go:
Arrived

Flight Plot

Page will automatically refresh every two minutes.

Flight plan parsing failed; only flown route is shown


Map Options




Map Legend


Flown Route
Filed Route
Departure Airport
Arrival Airport
Navaid (VOR, NDB)
Fix

Horizontal Profiles

Position Reports

Time Latitude Longitude Heading Altitude Ground
Speed
04-Mar-20 18:06 36.079789 -115.145849 335 2121ft 0kts
04-Mar-20 18:08 36.079789 -115.145849 335 2121ft 0kts
04-Mar-20 18:09 36.079789 -115.145849 335 2121ft 0kts
04-Mar-20 18:10 36.079789 -115.145849 335 2121ft 0kts
04-Mar-20 18:11 36.079789 -115.145849 335 2121ft 0kts
04-Mar-20 18:12 36.079789 -115.145849 335 2121ft 0kts
04-Mar-20 18:13 36.079789 -115.145849 335 2121ft 0kts
04-Mar-20 18:14 36.079789 -115.145849 335 2121ft 0kts
04-Mar-20 18:15 36.079789 -115.145849 335 2121ft 0kts
04-Mar-20 18:16 36.079789 -115.145849 335 2121ft 0kts
04-Mar-20 18:17 36.079789 -115.145849 335 2121ft 0kts
04-Mar-20 18:18 36.079789 -115.145849 335 2121ft 0kts
04-Mar-20 18:19 36.079789 -115.145849 335 2121ft 0kts
04-Mar-20 18:20 36.079789 -115.145849 335 2121ft 0kts
04-Mar-20 18:21 36.079788 -115.145848 335 2121ft 0kts
04-Mar-20 18:22 36.079278 -115.145561 335 2121ft 2kts
04-Mar-20 18:23 36.078704 -115.145449 27 2121ft 2kts
04-Mar-20 18:23 36.078451 -115.145951 92 2121ft 1kts
04-Mar-20 18:25 36.078460 -115.146061 97 2121ft 0kts
04-Mar-20 18:26 36.078415 -115.145617 96 2121ft 10kts
04-Mar-20 18:26 36.078276 -115.140838 90 2121ft 20kts
04-Mar-20 18:28 36.078280 -115.131397 91 2121ft 23kts
04-Mar-20 18:29 36.078295 -115.123957 91 2121ft 15kts
04-Mar-20 18:29 36.077476 -115.121497 139 2121ft 0kts
04-Mar-20 18:30 36.077197 -115.121279 162 2121ft 8kts
04-Mar-20 18:31 36.076372 -115.149514 270 2324ft 190kts
04-Mar-20 18:32 36.075958 -115.216116 258 4929ft 223kts
04-Mar-20 18:33 36.025123 -115.276658 200 6323ft 285kts
04-Mar-20 18:34 35.952584 -115.324386 223 8912ft 307kts
04-Mar-20 18:35 35.897206 -115.400949 245 10278ft 302kts
04-Mar-20 18:36 35.887225 -115.507791 274 11015ft 342kts
04-Mar-20 18:37 35.890049 -115.624874 274 11017ft 341kts
04-Mar-20 18:38 35.891981 -115.735307 273 13223ft 349kts
04-Mar-20 18:39 35.894022 -115.856686 274 16117ft 360kts
04-Mar-20 18:40 35.910994 -115.977041 302 18728ft 361kts
04-Mar-20 18:41 35.979895 -116.067893 317 21103ft 368kts
04-Mar-20 18:42 36.055554 -116.154781 317 23224ft 376kts
04-Mar-20 18:43 36.131252 -116.242033 316 25079ft 385kts
04-Mar-20 18:44 36.210008 -116.333078 316 26808ft 393kts
04-Mar-20 18:45 36.289297 -116.424996 315 28303ft 402kts
04-Mar-20 18:46 36.365698 -116.513805 315 29623ft 408kts
04-Mar-20 18:47 36.438255 -116.598360 315 30836ft 412kts
04-Mar-20 18:48 36.505480 -116.677540 313 32155ft 408kts
04-Mar-20 18:49 36.571819 -116.747482 321 33365ft 408kts
04-Mar-20 18:50 36.646845 -116.809009 323 34143ft 410kts
04-Mar-20 18:51 36.731992 -116.874948 324 34156ft 407kts
04-Mar-20 18:52 36.808216 -116.933265 324 34150ft 408kts
04-Mar-20 18:53 36.885607 -116.992405 324 34181ft 411kts
04-Mar-20 18:54 36.964536 -117.052763 324 34221ft 413kts
04-Mar-20 18:55 37.048934 -117.117439 324 34226ft 414kts
04-Mar-20 18:56 37.135411 -117.183871 324 34227ft 412kts
04-Mar-20 18:57 37.233993 -117.259836 325 34227ft 412kts
04-Mar-20 18:58 37.325701 -117.340867 317 34226ft 409kts
04-Mar-20 18:59 37.393728 -117.412566 317 34210ft 409kts
04-Mar-20 19:00 37.462023 -117.485376 317 34185ft 409kts
04-Mar-20 19:01 37.535243 -117.550760 323 34191ft 412kts
04-Mar-20 19:02 37.622485 -117.620896 324 34217ft 412kts
04-Mar-20 19:03 37.694202 -117.677989 324 34204ft 412kts
04-Mar-20 19:04 37.768605 -117.737192 324 34181ft 412kts
04-Mar-20 19:05 37.853326 -117.804657 324 34155ft 412kts
04-Mar-20 19:06 37.930099 -117.865912 324 34147ft 412kts
04-Mar-20 19:07 38.007262 -117.927622 324 34170ft 412kts
04-Mar-20 19:08 38.082376 -117.987841 324 34177ft 412kts
04-Mar-20 19:09 38.155224 -118.046379 324 34162ft 413kts
04-Mar-20 19:10 38.234108 -118.109921 324 34157ft 412kts
04-Mar-20 19:11 38.325878 -118.184057 324 34221ft 412kts
04-Mar-20 19:12 38.421624 -118.268516 316 34259ft 404kts
04-Mar-20 19:13 38.473280 -118.329427 313 34241ft 401kts
04-Mar-20 19:14 38.520379 -118.387007 313 34212ft 403kts
04-Mar-20 19:15 38.568426 -118.446145 313 33685ft 412kts
04-Mar-20 19:16 38.630665 -118.523034 313 31038ft 420kts
04-Mar-20 19:17 38.683520 -118.588479 313 29374ft 402kts
04-Mar-20 19:18 38.735493 -118.653046 313 28211ft 384kts
04-Mar-20 19:19 38.795154 -118.727669 313 28040ft 389kts
04-Mar-20 19:20 38.860332 -118.808996 313 26145ft 395kts
04-Mar-20 19:21 38.924752 -118.889359 312 23437ft 377kts
04-Mar-20 19:22 39.013531 -119.000480 312 19566ft 363kts
04-Mar-20 19:23 39.110358 -119.122684 312 16513ft 350kts
04-Mar-20 19:24 39.205452 -119.241479 313 14581ft 320kts
04-Mar-20 19:25 39.299253 -119.359679 313 12820ft 302kts
04-Mar-20 19:26 39.393570 -119.473051 319 12007ft 300kts
04-Mar-20 19:27 39.489842 -119.567679 323 10051ft 276kts
04-Mar-20 19:28 39.587242 -119.606572 353 9348ft 245kts
04-Mar-20 19:29 39.664138 -119.675329 278 7676ft 223kts
04-Mar-20 19:30 39.645271 -119.756321 217 7303ft 166kts
04-Mar-20 19:31 39.589336 -119.767676 182 5975ft 165kts
04-Mar-20 19:32 39.537932 -119.769105 180 4990ft 165kts
04-Mar-20 19:33 39.488877 -119.769294 179 4426ft 39kts
04-Mar-20 19:34 39.487033 -119.771522 347 4426ft 14kts
04-Mar-20 19:35 39.491547 -119.771573 359 4426ft 16kts
04-Mar-20 19:36 39.495832 -119.771560 359 4426ft 16kts

Navigation Log

Ident Type
Flight plan parsing failed, navigation log unavailable